Time;durP1;ratioP1;P1;durP2;ratioP2;P2;SDS_P1;SDS_P2;PMS_P1;PMS_P2;Temp;Humidity;BMP_temperature;BMP_pressure;BME280_temperature;BME280_humidity;BME280_pressure;Samples;Min_cycle;Max_cycle;Signal;HPM_P1;HPM_P2
2022/05/14 00:01:29;;;;;;;;;;;;;;;16.62;45.57;100682.53;6180159;23;19912;-89
2022/05/14 00:03:56;;;;;;;;;;;;;;;16.61;46.06;100675.44;6183667;23;19912;-89
2022/05/14 00:06:24;;;;;;;;;;;;;;;16.57;46.62;100676.84;6129759;22;19921;-88
2022/05/14 00:08:50;;;;;;;;;;;;;;;16.53;46.83;100672.88;6166337;22;19982;-90
2022/05/14 00:14:10;;;;;;;;;;;;;;;16.55;46.52;100659.09;6238195;22;19923;-91
2022/05/14 00:16:37;;;;;;;;;;;;;;;16.51;46.66;100665.97;6149637;22;19919;-91
2022/05/14 00:19:02;;;;;;;;;;;;;;;16.50;46.78;100667.84;6154378;23;19970;-90
2022/05/14 00:21:32;;;;;;;;;;;;;;;16.48;46.74;100658.22;6252081;22;19912;-90
2022/05/14 00:24:01;;;;;;;;;;;;;;;16.45;46.64;100659.47;6259672;22;19913;-90
2022/05/14 00:26:26;;;;;;;;;;;;;;;16.29;47.50;100655.19;6255428;22;19917;-91
2022/05/14 00:28:52;;;;;;;;;;;;;;;16.23;47.72;100648.69;6253775;22;19919;-91
2022/05/14 00:31:26;;;;;;;;;;;;;;;16.24;47.45;100653.06;6276476;22;19919;-90
2022/05/14 00:33:51;;;;;;;;;;;;;;;16.25;47.49;100649.34;6157205;23;19928;-90
2022/05/14 00:36:20;;;;;;;;;;;;;;;16.22;47.59;100648.88;6253080;22;19912;-89
2022/05/14 00:38:51;;;;;;;;;;;;;;;16.18;47.74;100651.16;6230935;22;19917;-90
2022/05/14 00:41:19;;;;;;;;;;;;;;;16.13;48.44;100650.06;6149022;23;20349;-89
2022/05/14 00:43:57;;;;;;;;;;;;;;;16.09;48.15;100633.38;6252559;22;19913;-90
2022/05/14 00:46:36;;;;;;;;;;;;;;;16.11;47.72;100642.16;6256037;22;19927;-89
2022/05/14 00:49:02;;;;;;;;;;;;;;;16.05;47.96;100632.06;6153524;22;19987;-88
2022/05/14 00:51:28;;;;;;;;;;;;;;;16.01;48.08;100636.22;6270697;22;19913;-89
2022/05/14 00:54:18;;;;;;;;;;;;;;;15.90;48.75;100628.63;6260336;22;19935;-90
2022/05/14 00:56:50;;;;;;;;;;;;;;;15.91;48.76;100633.00;6152314;22;19974;-91
2022/05/14 00:59:20;;;;;;;;;;;;;;;15.87;49.03;100632.56;6154695;22;19919;-86
2022/05/14 01:01:48;;;;;;;;;;;;;;;15.81;49.34;100639.63;6256903;22;19919;-90
2022/05/14 01:04:29;;;;;;;;;;;;;;;15.79;49.79;100636.25;6248480;22;19912;-91
2022/05/14 01:07:05;;;;;;;;;;;;;;;15.79;49.29;100638.13;6170854;23;19923;-91
2022/05/14 01:09:30;;;;;;;;;;;;;;;15.76;49.31;100631.22;6203597;22;19999;-89
2022/05/14 01:12:00;;;;;;;;;;;;;;;15.76;49.28;100636.66;6155943;23;19923;-89
2022/05/14 01:14:25;;;;;;;;;;;;;;;15.72;49.50;100637.25;6154666;23;20022;-90
2022/05/14 01:16:57;;;;;;;;;;;;;;;15.71;49.24;100630.13;6133201;23;19917;-91
2022/05/14 01:19:24;;;;;;;;;;;;;;;15.67;49.51;100618.81;6135766;23;19962;-89
2022/05/14 01:22:12;;;;;;;;;;;;;;;15.66;49.53;100616.28;6153951;22;19951;-88
2022/05/14 01:27:32;;;;;;;;;;;;;;;15.54;50.24;100618.69;6185229;23;19994;-91
2022/05/14 01:30:03;;;;;;;;;;;;;;;15.56;49.98;100612.03;6176590;23;19916;-91
2022/05/14 01:32:33;;;;;;;;;;;;;;;15.53;50.04;100611.63;6178397;22;19935;-89
2022/05/14 01:34:59;;;;;;;;;;;;;;;15.52;50.25;100607.22;6188117;22;19932;-91
2022/05/14 01:37:28;;;;;;;;;;;;;;;15.47;50.35;100607.78;6153470;23;19940;-89
2022/05/14 01:39:55;;;;;;;;;;;;;;;15.46;50.35;100605.28;6129109;23;19913;-91
2022/05/14 01:42:20;;;;;;;;;;;;;;;15.45;50.05;100603.59;6181508;23;19987;-91
2022/05/14 01:44:46;;;;;;;;;;;;;;;15.44;50.50;100607.34;6154360;23;20283;-90
2022/05/14 01:47:12;;;;;;;;;;;;;;;15.41;50.69;100595.03;6153541;23;19995;-90
2022/05/14 01:49:38;;;;;;;;;;;;;;;15.35;51.01;100604.75;6155809;22;20409;-92
2022/05/14 01:52:05;;;;;;;;;;;;;;;15.33;50.96;100598.69;6153286;23;20006;-90
2022/05/14 01:54:32;;;;;;;;;;;;;;;15.29;51.17;100599.28;6157040;23;19920;-90
2022/05/14 01:57:01;;;;;;;;;;;;;;;15.27;51.10;100593.25;6152188;23;19916;-91
2022/05/14 01:59:27;;;;;;;;;;;;;;;15.24;51.13;100593.59;6178233;22;20241;-92
2022/05/14 02:01:54;;;;;;;;;;;;;;;15.11;52.00;100591.63;6183601;23;19937;-90
2022/05/14 02:04:25;;;;;;;;;;;;;;;15.14;52.17;100591.22;6165424;23;19896;-90
2022/05/14 02:06:55;;;;;;;;;;;;;;;15.19;51.44;100594.19;6193669;23;19913;-92
2022/05/14 02:09:31;;;;;;;;;;;;;;;15.18;51.35;100595.22;6133683;22;20004;-91
2022/05/14 02:12:01;;;;;;;;;;;;;;;15.14;51.20;100592.06;6182501;22;20241;-90
2022/05/14 02:14:26;;;;;;;;;;;;;;;15.11;51.44;100587.03;6177338;23;19996;-91
2022/05/14 02:16:57;;;;;;;;;;;;;;;15.09;51.81;100580.13;6179396;23;20003;-89
2022/05/14 02:19:24;;;;;;;;;;;;;;;15.05;52.14;100576.13;6179426;23;19912;-90
2022/05/14 02:21:50;;;;;;;;;;;;;;;15.03;52.56;100575.47;6182688;23;19916;-91
2022/05/14 02:24:22;;;;;;;;;;;;;;;15.05;52.78;100581.53;6204962;23;19923;-91
2022/05/14 02:26:52;;;;;;;;;;;;;;;15.01;52.89;100580.25;6179488;22;19912;-91
2022/05/14 02:29:19;;;;;;;;;;;;;;;14.97;53.39;100583.34;6184352;22;19927;-90
2022/05/14 02:31:45;;;;;;;;;;;;;;;14.93;54.13;100581.22;6161161;23;19912;-90
2022/05/14 02:34:11;;;;;;;;;;;;;;;14.71;55.37;100581.19;6179682;22;19912;-89
2022/05/14 02:36:42;;;;;;;;;;;;;;;14.71;55.92;100580.34;6194775;22;19916;-90
2022/05/14 02:39:08;;;;;;;;;;;;;;;14.77;55.83;100576.84;6155120;22;19926;-89
2022/05/14 02:41:33;;;;;;;;;;;;;;;14.72;56.24;100582.84;6178293;22;19987;-87
2022/05/14 02:43:59;;;;;;;;;;;;;;;14.69;55.90;100577.81;6180672;23;20338;-88
2022/05/14 02:46:28;;;;;;;;;;;;;;;14.70;55.85;100578.66;6177661;23;19936;-87
2022/05/14 02:48:54;;;;;;;;;;;;;;;14.64;55.60;100580.25;6181178;22;20042;-87
2022/05/14 02:51:19;;;;;;;;;;;;;;;14.61;55.45;100577.06;6179368;23;20299;-87
2022/05/14 02:53:45;;;;;;;;;;;;;;;14.62;54.94;100581.47;6184519;22;19920;-83
2022/05/14 02:56:10;;;;;;;;;;;;;;;14.55;55.25;100584.94;6129929;23;19917;-86
2022/05/14 03:01:22;;;;;;;;;;;;;;;14.60;55.24;100584.38;6156966;23;19922;-84
2022/05/14 03:03:55;;;;;;;;;;;;;;;14.61;55.09;100585.19;6180170;23;19908;-84
2022/05/14 03:06:25;;;;;;;;;;;;;;;14.57;55.18;100580.16;6150066;23;20341;-84
2022/05/14 03:08:51;;;;;;;;;;;;;;;14.54;55.59;100579.72;6224989;22;19921;-83
2022/05/14 03:11:18;;;;;;;;;;;;;;;14.61;55.33;100593.31;6278835;22;20232;-84
2022/05/14 03:13:44;;;;;;;;;;;;;;;14.59;55.19;100589.97;6250162;22;20233;-84
2022/05/14 03:16:10;;;;;;;;;;;;;;;14.65;54.87;100581.09;6275883;22;19911;-83
2022/05/14 03:18:35;;;;;;;;;;;;;;;14.72;54.67;100587.41;6306898;22;19911;-84
2022/05/14 03:21:06;;;;;;;;;;;;;;;14.75;54.80;100573.53;6276191;22;19919;-83
2022/05/14 03:23:32;;;;;;;;;;;;;;;14.75;54.80;100576.22;6304704;22;19946;-83
2022/05/14 03:25:57;;;;;;;;;;;;;;;14.80;54.82;100576.50;6295249;22;19934;-83
2022/05/14 03:28:22;;;;;;;;;;;;;;;14.77;54.86;100579.56;6306601;22;19977;-84
2022/05/14 03:30:49;;;;;;;;;;;;;;;14.84;54.44;100580.47;6277475;22;20002;-85
2022/05/14 03:33:18;;;;;;;;;;;;;;;14.89;54.30;100588.88;6279982;22;19918;-84
2022/05/14 03:35:44;;;;;;;;;;;;;;;14.96;54.24;100588.94;6261110;22;19994;-84
2022/05/14 03:38:11;;;;;;;;;;;;;;;14.96;54.02;100586.22;6277827;22;19919;-84
2022/05/14 03:40:36;;;;;;;;;;;;;;;15.05;53.80;100587.78;6305725;22;19919;-85
2022/05/14 03:43:02;;;;;;;;;;;;;;;15.06;54.06;100586.78;6275371;22;19915;-85
2022/05/14 03:45:28;;;;;;;;;;;;;;;15.15;53.91;100592.91;6303548;22;19921;-84
2022/05/14 03:47:53;;;;;;;;;;;;;;;15.15;53.80;100598.34;6304598;22;20233;-84
2022/05/14 03:50:18;;;;;;;;;;;;;;;15.15;54.98;100607.28;6250650;22;19913;-83
2022/05/14 03:52:45;;;;;;;;;;;;;;;15.29;55.17;100605.56;6255270;22;19913;-84
2022/05/14 03:55:10;;;;;;;;;;;;;;;15.38;55.59;100609.81;6147985;23;19993;-84
2022/05/14 03:57:36;;;;;;;;;;;;;;;15.38;56.33;100607.09;6249010;22;19917;-84
2022/05/14 04:00:07;;;;;;;;;;;;;;;15.37;56.60;100600.00;6150052;23;19917;-85
2022/05/14 04:02:35;;;;;;;;;;;;;;;15.55;56.37;100612.25;6150403;22;19908;-83
2022/05/14 04:05:00;;;;;;;;;;;;;;;15.68;56.02;100604.22;6225320;22;19921;-85
2022/05/14 04:07:25;;;;;;;;;;;;;;;15.76;55.95;100609.53;6276476;22;20301;-84
2022/05/14 04:09:54;;;;;;;;;;;;;;;15.79;55.95;100606.44;6183205;22;19931;-82
2022/05/14 04:12:19;;;;;;;;;;;;;;;15.80;56.08;100602.72;6151792;23;19913;-84
2022/05/14 04:14:46;;;;;;;;;;;;;;;15.79;55.28;100609.16;6148510;23;19912;-84
2022/05/14 04:17:12;;;;;;;;;;;;;;;15.90;55.23;100609.66;6175473;23;20229;-84
2022/05/14 04:19:39;;;;;;;;;;;;;;;15.92;54.88;100616.56;6126494;23;19995;-84
2022/05/14 04:22:05;;;;;;;;;;;;;;;15.85;55.00;100620.22;6151369;23;19916;-85
2022/05/14 04:24:32;;;;;;;;;;;;;;;15.89;54.95;100616.09;6152693;23;19917;-84
2022/05/14 04:26:57;;;;;;;;;;;;;;;16.01;54.87;100609.09;6190056;22;19935;-84
2022/05/14 04:29:23;;;;;;;;;;;;;;;16.23;54.49;100618.84;6150307;23;20353;-83
2022/05/14 04:31:49;;;;;;;;;;;;;;;16.74;52.88;100617.66;6177005;23;20245;-84
2022/05/14 04:34:18;;;;;;;;;;;;;;;17.26;51.64;100612.63;6153646;22;19916;-85
2022/05/14 04:36:43;;;;;;;;;;;;;;;17.75;50.58;100622.31;6191852;23;19916;-84
2022/05/14 04:39:10;;;;;;;;;;;;;;;18.19;49.68;100615.41;6181513;23;19920;-84
2022/05/14 04:41:35;;;;;;;;;;;;;;;18.63;48.22;100612.94;6153382;22;19987;-85
2022/05/14 04:44:05;;;;;;;;;;;;;;;19.03;47.42;100616.34;6152330;22;19967;-83
2022/05/14 04:46:35;;;;;;;;;;;;;;;19.35;46.01;100616.38;6153388;23;19924;-86
2022/05/14 04:49:01;;;;;;;;;;;;;;;19.68;44.78;100604.41;6178985;23;19916;-85
2022/05/14 04:51:27;;;;;;;;;;;;;;;19.96;43.92;100604.81;6177338;23;20360;-86
2022/05/14 04:53:55;;;;;;;;;;;;;;;20.26;42.60;100595.09;6149779;23;19916;-85
2022/05/14 04:56:31;;;;;;;;;;;;;;;20.34;42.33;100597.50;6125508;23;20061;-86
2022/05/14 04:58:56;;;;;;;;;;;;;;;20.48;42.22;100603.66;6173750;22;20456;-87
2022/05/14 05:01:24;;;;;;;;;;;;;;;20.90;41.13;100601.06;6149557;23;19955;-86
2022/05/14 05:03:49;;;;;;;;;;;;;;;21.33;40.29;100600.03;6152938;23;20077;-86
2022/05/14 05:06:14;;;;;;;;;;;;;;;21.58;39.93;100606.19;6174691;23;20298;-85
2022/05/14 05:08:40;;;;;;;;;;;;;;;21.79;39.42;100601.22;6154647;23;19917;-85
2022/05/14 05:11:07;;;;;;;;;;;;;;;21.96;39.25;100613.16;6127560;23;20310;-82
2022/05/14 05:13:35;;;;;;;;;;;;;;;22.12;38.81;100598.75;6123877;22;19935;-90
2022/05/14 05:16:12;;;;;;;;;;;;;;;22.17;39.53;100599.91;6175900;23;19912;-87
2022/05/14 05:18:38;;;;;;;;;;;;;;;21.93;41.21;100610.88;6174829;23;19917;-86
2022/05/14 05:21:03;;;;;;;;;;;;;;;21.88;39.59;100603.38;6150312;23;20288;-86
2022/05/14 05:23:29;;;;;;;;;;;;;;;22.08;38.82;100597.56;6161829;22;19919;-88
2022/05/14 05:25:55;;;;;;;;;;;;;;;22.51;38.28;100607.28;6160822;22;19952;-92
2022/05/14 05:28:20;;;;;;;;;;;;;;;22.59;37.85;100607.97;6171478;23;19928;-86
2022/05/14 05:30:46;;;;;;;;;;;;;;;22.75;37.20;100601.75;6166043;23;19916;-90
2022/05/14 05:33:12;;;;;;;;;;;;;;;23.00;35.96;100609.69;6152490;23;19920;-87
2022/05/14 05:35:40;;;;;;;;;;;;;;;23.27;35.30;100612.66;6157709;23;19912;-86
2022/05/14 05:38:05;;;;;;;;;;;;;;;23.55;34.92;100619.16;6168277;23;20053;-87
2022/05/14 05:40:31;;;;;;;;;;;;;;;23.88;34.12;100620.28;6178264;23;19947;-86
2022/05/14 05:42:59;;;;;;;;;;;;;;;23.77;33.83;100614.66;6179056;23;19912;-86
2022/05/14 05:45:30;;;;;;;;;;;;;;;23.78;34.62;100626.44;6155517;22;20282;-86
2022/05/14 05:47:56;;;;;;;;;;;;;;;23.90;33.95;100634.59;6153382;23;19916;-87
2022/05/14 05:50:25;;;;;;;;;;;;;;;24.25;33.96;100631.56;6180165;23;19920;-88
2022/05/14 05:52:53;;;;;;;;;;;;;;;24.38;33.44;100622.16;6152492;23;20242;-84
2022/05/14 05:58:04;;;;;;;;;;;;;;;25.03;32.52;100632.34;6156101;23;20380;-87
2022/05/14 06:00:34;;;;;;;;;;;;;;;25.16;33.48;100622.84;6177347;23;20063;-87
2022/05/14 06:02:59;;;;;;;;;;;;;;;25.37;32.39;100632.16;6150869;23;19916;-89
2022/05/14 06:05:25;;;;;;;;;;;;;;;25.67;32.72;100628.06;6155942;23;20979;-87
2022/05/14 06:07:57;;;;;;;;;;;;;;;25.60;32.83;100639.28;6178358;23;19912;-86
2022/05/14 06:10:24;;;;;;;;;;;;;;;25.08;33.78;100630.75;6193859;23;19927;-89
2022/05/14 06:13:01;;;;;;;;;;;;;;;25.33;33.39;100630.19;6177228;23;19900;-89
2022/05/14 06:15:28;;;;;;;;;;;;;;;25.20;33.83;100631.47;6180598;23;19900;-91
2022/05/14 06:18:15;;;;;;;;;;;;;;;25.37;33.69;100636.84;6165257;23;19905;-91
2022/05/14 06:20:52;;;;;;;;;;;;;;;25.52;33.56;100636.16;6196725;23;19924;-88
2022/05/14 06:23:44;;;;;;;;;;;;;;;25.35;33.89;100628.84;6189645;22;19932;-94
2022/05/14 06:26:12;;;;;;;;;;;;;;;25.28;33.96;100630.97;6146366;22;19912;-92
2022/05/14 06:28:48;;;;;;;;;;;;;;;25.34;34.09;100638.19;6183264;23;19905;-88
2022/05/14 06:31:17;;;;;;;;;;;;;;;25.06;34.45;100631.00;6192627;22;19908;-90
2022/05/14 06:33:47;;;;;;;;;;;;;;;24.98;34.83;100629.53;6170985;23;19912;-90
2022/05/14 06:36:18;;;;;;;;;;;;;;;25.05;34.96;100630.19;6205897;22;19908;-92
2022/05/14 06:38:57;;;;;;;;;;;;;;;25.14;34.70;100621.44;6209389;23;19916;-92
2022/05/14 06:41:23;;;;;;;;;;;;;;;25.09;34.91;100629.66;6222882;23;19916;-92
2022/05/14 06:44:04;;;;;;;;;;;;;;;25.14;34.87;100629.69;6190213;22;20057;-91
2022/05/14 06:46:34;;;;;;;;;;;;;;;25.17;34.91;100626.41;6191113;23;20222;-92
2022/05/14 06:49:01;;;;;;;;;;;;;;;25.05;35.00;100616.41;6216027;23;20352;-85
2022/05/14 06:51:28;;;;;;;;;;;;;;;25.31;34.17;100622.22;6210076;23;19943;-88
2022/05/14 06:53:53;;;;;;;;;;;;;;;25.54;33.56;100621.03;6221247;23;20269;-91
2022/05/14 06:56:19;;;;;;;;;;;;;;;25.78;32.48;100621.53;6192225;23;19924;-93
2022/05/14 06:58:48;;;;;;;;;;;;;;;26.05;32.22;100610.47;6167784;23;19916;-94
2022/05/14 07:01:27;;;;;;;;;;;;;;;26.06;31.44;100606.63;6221767;23;19912;-93
2022/05/14 07:06:52;;;;;;;;;;;;;;;26.14;31.73;100616.31;6218226;23;19960;-94
2022/05/14 07:09:27;;;;;;;;;;;;;;;26.39;31.35;100612.06;6202127;23;19968;-90
2022/05/14 07:12:09;;;;;;;;;;;;;;;26.66;30.81;100612.75;6198535;23;20002;-91
2022/05/14 07:14:56;;;;;;;;;;;;;;;27.16;30.12;100619.53;6310371;22;19920;-95
2022/05/14 07:17:33;;;;;;;;;;;;;;;27.88;29.15;100616.88;6229878;23;19919;-93
2022/05/14 07:19:58;;;;;;;;;;;;;;;28.14;28.90;100619.59;6191896;23;20066;-95
2022/05/14 07:22:25;;;;;;;;;;;;;;;28.25;28.47;100618.47;6174715;23;19969;-94
2022/05/14 07:24:57;;;;;;;;;;;;;;;28.19;28.39;100625.97;6194545;23;19922;-95
2022/05/14 07:27:37;;;;;;;;;;;;;;;28.26;28.21;100630.38;6228437;23;19947;-94
2022/05/14 07:30:10;;;;;;;;;;;;;;;28.29;28.39;100633.41;6233765;23;20352;-92
2022/05/14 07:32:36;;;;;;;;;;;;;;;28.25;28.65;100629.53;6190031;23;19919;-92
2022/05/14 07:35:08;;;;;;;;;;;;;;;28.25;28.49;100631.47;6195132;22;19912;-94
2022/05/14 07:37:49;;;;;;;;;;;;;;;28.11;28.77;100634.81;6223867;23;19927;-94
2022/05/14 07:40:19;;;;;;;;;;;;;;;28.16;28.95;100633.97;6203806;23;19951;-95
2022/05/14 07:43:07;;;;;;;;;;;;;;;28.09;29.28;100625.97;6217731;23;19912;-93
2022/05/14 07:45:51;;;;;;;;;;;;;;;27.85;29.71;100639.53;6193652;22;20314;-90
2022/05/14 07:48:23;;;;;;;;;;;;;;;27.93;29.62;100641.75;6195366;23;19900;-88
2022/05/14 07:50:50;;;;;;;;;;;;;;;28.04;29.59;100644.50;6188754;23;19912;-91
2022/05/14 07:53:18;;;;;;;;;;;;;;;27.99;29.83;100640.63;6193748;22;20013;-93
2022/05/14 07:55:44;;;;;;;;;;;;;;;28.29;29.15;100652.75;6183354;23;19916;-94
2022/05/14 07:58:12;;;;;;;;;;;;;;;28.57;29.28;100636.69;6182992;23;19923;-96
2022/05/14 08:00:45;;;;;;;;;;;;;;;28.87;29.36;100641.28;6187099;22;19926;-85
2022/05/14 08:03:15;;;;;;;;;;;;;;;29.06;29.14;100641.44;6173331;22;19966;-85
2022/05/14 08:06:01;;;;;;;;;;;;;;;28.98;29.09;100650.34;6178888;23;20092;-84
2022/05/14 08:08:31;;;;;;;;;;;;;;;29.11;28.62;100641.44;6207402;23;20295;-86
2022/05/14 08:11:01;;;;;;;;;;;;;;;29.25;29.08;100642.47;6208636;23;19943;-81
2022/05/14 08:13:26;;;;;;;;;;;;;;;29.27;28.54;100641.34;6209612;23;20337;-85
2022/05/14 08:15:54;;;;;;;;;;;;;;;29.45;28.12;100641.50;6185166;23;20022;-83
2022/05/14 08:18:23;;;;;;;;;;;;;;;29.56;28.55;100635.88;6182126;23;19916;-86
2022/05/14 08:20:50;;;;;;;;;;;;;;;29.79;28.11;100637.13;6181386;23;19912;-82
2022/05/14 08:26:00;;;;;;;;;;;;;;;29.97;28.22;100636.41;6186254;23;20318;-84
2022/05/14 08:28:29;;;;;;;;;;;;;;;30.04;28.33;100642.44;6158916;23;19992;-84
2022/05/14 08:31:02;;;;;;;;;;;;;;;30.31;28.06;100640.25;6195970;23;19935;-82
2022/05/14 08:33:30;;;;;;;;;;;;;;;30.53;27.48;100643.31;6209871;22;19912;-84
2022/05/14 08:35:57;;;;;;;;;;;;;;;30.47;28.26;100642.56;6156338;23;19986;-83
2022/05/14 08:38:23;;;;;;;;;;;;;;;30.55;28.45;100637.50;6178602;22;19916;-84
2022/05/14 08:40:57;;;;;;;;;;;;;;;30.61;28.50;100641.88;6191858;23;19919;-84
2022/05/14 08:43:28;;;;;;;;;;;;;;;30.41;28.83;100646.50;6179676;23;19935;-83
2022/05/14 08:45:53;;;;;;;;;;;;;;;30.57;28.50;100643.56;6177807;23;19912;-84
2022/05/14 08:48:33;;;;;;;;;;;;;;;30.32;29.49;100648.28;6152179;23;19920;-83
2022/05/14 08:51:07;;;;;;;;;;;;;;;30.41;30.17;100663.16;6176779;23;20272;-83
2022/05/14 08:53:37;;;;;;;;;;;;;;;30.07;29.93;100668.75;6178927;23;19936;-89
2022/05/14 08:56:21;;;;;;;;;;;;;;;29.92;29.96;100664.16;6179515;23;20323;-88
2022/05/14 08:59:05;;;;;;;;;;;;;;;29.86;29.91;100668.91;6180689;23;21375;-86
2022/05/14 09:01:34;;;;;;;;;;;;;;;29.84;31.20;100664.78;6177816;23;20313;-85
2022/05/14 09:04:01;;;;;;;;;;;;;;;29.63;30.62;100664.91;6180101;23;19919;-85
2022/05/14 09:06:27;;;;;;;;;;;;;;;29.54;30.89;100671.34;6209333;22;19972;-84
2022/05/14 09:08:52;;;;;;;;;;;;;;;29.27;31.23;100667.09;6161627;22;19916;-85
2022/05/14 09:11:29;;;;;;;;;;;;;;;29.09;31.74;100668.56;6193761;23;20341;-85
2022/05/14 09:13:57;;;;;;;;;;;;;;;29.04;31.26;100668.56;6188296;23;19908;-82
2022/05/14 09:16:30;;;;;;;;;;;;;;;29.34;31.38;100667.63;6158504;22;19912;-85
2022/05/14 09:18:55;;;;;;;;;;;;;;;29.44;32.22;100673.06;6183348;23;19916;-85
2022/05/14 09:21:28;;;;;;;;;;;;;;;29.26;31.99;100670.97;6208641;23;20033;-83
2022/05/14 09:23:55;;;;;;;;;;;;;;;28.89;31.81;100682.47;6207400;23;19912;-84
2022/05/14 09:26:32;;;;;;;;;;;;;;;28.20;32.19;100688.41;6183265;23;19908;-82
2022/05/14 09:29:01;;;;;;;;;;;;;;;28.32;31.98;100682.59;6211157;23;19912;-85
2022/05/14 09:31:36;;;;;;;;;;;;;;;28.62;30.76;100678.16;6204847;22;19900;-86
2022/05/14 09:34:15;;;;;;;;;;;;;;;28.45;31.04;100688.66;6210151;22;19912;-87
2022/05/14 09:36:48;;;;;;;;;;;;;;;28.93;30.11;100678.03;6209350;23;19916;-84
2022/05/14 09:39:19;;;;;;;;;;;;;;;28.88;29.46;100672.53;6212851;22;19912;-83
2022/05/14 09:41:49;;;;;;;;;;;;;;;29.18;28.81;100674.34;6222892;23;19912;-86
2022/05/14 09:44:25;;;;;;;;;;;;;;;29.39;28.33;100664.00;6209031;23;19912;-86
2022/05/14 09:46:52;;;;;;;;;;;;;;;29.27;28.71;100657.94;6182667;23;19912;-86
2022/05/14 09:49:41;;;;;;;;;;;;;;;29.37;28.54;100666.22;6205957;22;20216;-86
2022/05/14 09:52:15;;;;;;;;;;;;;;;29.58;28.54;100661.38;6179959;23;19912;-81
2022/05/14 09:54:42;;;;;;;;;;;;;;;29.60;28.43;100651.66;6208144;23;19915;-84
2022/05/14 09:57:26;;;;;;;;;;;;;;;29.24;29.43;100651.91;6206854;23;19912;-83
2022/05/14 10:00:06;;;;;;;;;;;;;;;29.09;30.07;100659.44;6181861;22;20310;-86
2022/05/14 10:02:44;;;;;;;;;;;;;;;29.33;30.33;100648.50;6180263;23;19951;-84
2022/05/14 10:05:32;;;;;;;;;;;;;;;29.51;29.91;100647.00;6205392;23;19912;-83
2022/05/14 10:08:14;;;;;;;;;;;;;;;30.32;28.77;100644.66;6212998;23;20260;-93
2022/05/14 10:10:52;;;;;;;;;;;;;;;30.32;28.82;100645.53;6204066;23;19991;-84
2022/05/14 10:13:28;;;;;;;;;;;;;;;29.67;29.37;100649.41;6224891;22;19912;-91
2022/05/14 10:16:12;;;;;;;;;;;;;;;30.22;28.83;100642.81;6219465;22;20026;-90
2022/05/14 10:18:44;;;;;;;;;;;;;;;30.76;28.24;100647.22;6211923;22;19916;-84
2022/05/14 10:21:22;;;;;;;;;;;;;;;31.68;27.26;100657.06;6217248;23;20228;-92
2022/05/14 10:26:48;;;;;;;;;;;;;;;33.72;23.02;100651.34;6216136;23;19923;-90
2022/05/14 10:29:37;;;;;;;;;;;;;;;33.62;22.26;100657.13;6192697;22;19912;-95
2022/05/14 10:32:11;;;;;;;;;;;;;;;33.45;22.79;100663.38;6235712;22;19912;-89
2022/05/14 10:34:52;;;;;;;;;;;;;;;34.76;21.61;100662.25;6216481;22;19919;-88
2022/05/14 10:37:46;;;;;;;;;;;;;;;34.55;21.80;100655.56;6182549;22;20377;-89
2022/05/14 10:40:31;;;;;;;;;;;;;;;35.01;21.01;100652.28;6202537;23;19912;-88
2022/05/14 10:43:07;;;;;;;;;;;;;;;35.15;21.45;100657.75;6191677;23;19916;-86
2022/05/14 10:45:46;;;;;;;;;;;;;;;33.18;23.32;100648.41;6176218;23;19912;-87
2022/05/14 10:48:31;;;;;;;;;;;;;;;34.31;22.34;100655.97;6177424;22;19927;-87
2022/05/14 10:50:58;;;;;;;;;;;;;;;34.39;21.94;100646.81;6177832;23;20042;-90
2022/05/14 10:53:29;;;;;;;;;;;;;;;34.73;21.83;100646.16;6179763;23;19938;-83
2022/05/14 10:56:10;;;;;;;;;;;;;;;34.81;21.96;100647.31;6184030;23;19924;-90
2022/05/14 10:58:45;;;;;;;;;;;;;;;33.56;23.22;100641.66;6179374;23;20214;-85
2022/05/14 11:01:30;;;;;;;;;;;;;;;34.15;22.73;100634.06;6187174;23;19916;-88
2022/05/14 11:04:20;;;;;;;;;;;;;;;34.16;22.49;100638.50;6181148;23;19955;-87
2022/05/14 11:06:58;;;;;;;;;;;;;;;33.63;24.04;100628.16;6211771;23;19912;-87
2022/05/14 11:09:38;;;;;;;;;;;;;;;32.67;24.96;100631.97;6212237;23;19911;-88
2022/05/14 11:12:11;;;;;;;;;;;;;;;32.95;24.68;100628.00;6231323;23;19923;-88
2022/05/14 11:14:43;;;;;;;;;;;;;;;32.28;25.92;100630.47;6194641;23;19912;-86
2022/05/14 11:17:18;;;;;;;;;;;;;;;32.65;25.59;100632.25;6161651;22;19990;-85
2022/05/14 11:19:43;;;;;;;;;;;;;;;32.30;25.95;100628.22;6184073;23;19943;-86
2022/05/14 11:22:18;;;;;;;;;;;;;;;31.92;26.30;100629.13;6210647;23;20252;-88
2022/05/14 11:24:43;;;;;;;;;;;;;;;32.17;26.22;100625.09;6184920;23;19954;-88
2022/05/14 11:27:09;;;;;;;;;;;;;;;32.14;26.43;100624.88;6182496;23;19912;-87
2022/05/14 11:29:45;;;;;;;;;;;;;;;32.73;26.14;100630.69;6158127;23;19915;-87
2022/05/14 11:32:12;;;;;;;;;;;;;;;33.21;25.19;100621.88;6169560;23;19934;-87
2022/05/14 11:34:37;;;;;;;;;;;;;;;32.52;25.68;100630.28;6172933;23;19995;-87
2022/05/14 11:37:04;;;;;;;;;;;;;;;32.41;26.08;100623.28;6213937;22;19916;-87
2022/05/14 11:39:31;;;;;;;;;;;;;;;32.75;25.68;100612.53;6183936;23;20000;-88
2022/05/14 11:42:07;;;;;;;;;;;;;;;32.93;25.65;100621.91;6224409;23;19935;-88
2022/05/14 11:44:35;;;;;;;;;;;;;;;32.42;26.28;100620.16;6190678;23;19956;-87
2022/05/14 11:47:02;;;;;;;;;;;;;;;31.16;27.62;100617.28;6183611;23;19919;-88
2022/05/14 11:49:35;;;;;;;;;;;;;;;30.92;28.39;100611.78;6158901;23;19927;-86
2022/05/14 11:52:07;;;;;;;;;;;;;;;31.22;27.68;100610.53;6160555;23;19981;-88
2022/05/14 11:54:38;;;;;;;;;;;;;;;30.49;28.49;100615.38;6183124;23;19923;-86
2022/05/14 11:57:07;;;;;;;;;;;;;;;31.03;28.34;100607.75;6184902;23;19923;-88
2022/05/14 11:59:53;;;;;;;;;;;;;;;30.98;28.09;100604.25;6186819;23;19908;-87
2022/05/14 12:02:34;;;;;;;;;;;;;;;31.16;27.26;100606.16;6217476;23;19960;-88
2022/05/14 12:05:02;;;;;;;;;;;;;;;30.99;27.57;100600.31;6188216;22;19949;-87
2022/05/14 12:07:27;;;;;;;;;;;;;;;31.21;27.06;100596.94;6183788;23;19927;-86
2022/05/14 12:10:04;;;;;;;;;;;;;;;30.35;28.40;100603.34;6213287;23;19912;-89
2022/05/14 12:12:32;;;;;;;;;;;;;;;29.88;28.48;100599.34;6216114;23;19923;-87
2022/05/14 12:15:05;;;;;;;;;;;;;;;30.02;28.51;100597.56;6185181;23;19986;-86
2022/05/14 12:17:30;;;;;;;;;;;;;;;30.08;28.80;100599.13;6183817;23;19935;-87
2022/05/14 12:19:56;;;;;;;;;;;;;;;30.02;28.65;100594.78;6160442;23;20341;-86
2022/05/14 12:22:22;;;;;;;;;;;;;;;30.16;28.82;100599.66;6185393;23;19918;-87
2022/05/14 12:24:55;;;;;;;;;;;;;;;30.00;28.40;100597.00;6160363;23;19951;-89
2022/05/14 12:27:21;;;;;;;;;;;;;;;30.49;28.26;100597.91;6185112;23;19987;-87
2022/05/14 12:29:58;;;;;;;;;;;;;;;30.53;28.15;100592.56;6183026;23;19954;-86
2022/05/14 12:35:18;;;;;;;;;;;;;;;29.81;28.89;100596.94;6206708;23;19919;-88
2022/05/14 12:37:43;;;;;;;;;;;;;;;30.06;28.28;100601.41;6183086;23;19916;-87
2022/05/14 12:40:10;;;;;;;;;;;;;;;30.21;28.32;100602.34;6160913;23;19922;-86
2022/05/14 12:42:39;;;;;;;;;;;;;;;30.27;28.39;100592.88;6162466;23;20023;-87
2022/05/14 12:45:04;;;;;;;;;;;;;;;29.95;28.50;100587.94;6195840;23;19927;-88
2022/05/14 12:47:30;;;;;;;;;;;;;;;29.64;29.42;100594.56;6187487;23;19912;-86
2022/05/14 12:49:56;;;;;;;;;;;;;;;29.51;29.61;100589.66;6158020;23;19923;-86
2022/05/14 12:52:24;;;;;;;;;;;;;;;29.38;29.73;100587.56;6183346;23;19920;-88
2022/05/14 12:54:52;;;;;;;;;;;;;;;29.44;29.94;100586.41;6211108;23;19946;-86
2022/05/14 12:57:17;;;;;;;;;;;;;;;29.58;29.59;100590.16;6182003;23;19916;-87
2022/05/14 12:59:43;;;;;;;;;;;;;;;29.23;30.54;100592.09;6183943;23;19919;-86
2022/05/14 13:02:16;;;;;;;;;;;;;;;29.02;30.96;100590.53;6161533;23;19993;-87
2022/05/14 13:04:53;;;;;;;;;;;;;;;28.45;31.03;100591.88;6159236;23;20348;-87
2022/05/14 13:07:18;;;;;;;;;;;;;;;27.87;32.39;100590.38;6161293;22;19916;-86
2022/05/14 13:09:43;;;;;;;;;;;;;;;27.98;31.96;100597.53;6210456;23;20041;-87
2022/05/14 13:12:16;;;;;;;;;;;;;;;27.98;31.99;100592.03;6184481;23;20296;-86
2022/05/14 13:14:48;;;;;;;;;;;;;;;27.98;32.03;100594.78;6185551;23;19968;-87